createdAt,value
2019-05-01T00:00:16.174Z,0.00
2019-05-01T00:01:13.999Z,0.00
2019-05-01T00:02:13.983Z,0.00
2019-05-01T00:03:13.992Z,0.00
2019-05-01T00:04:13.928Z,0.00
2019-05-01T00:05:13.909Z,0.00
2019-05-01T00:06:13.887Z,0.00
2019-05-01T00:07:13.862Z,0.00
2019-05-01T00:08:13.841Z,0.00
2019-05-01T00:09:13.823Z,0.00
2019-05-01T00:10:13.792Z,0.00
2019-05-01T00:11:13.793Z,0.00
2019-05-01T00:12:13.746Z,0.00
2019-05-01T00:13:13.740Z,0.00
2019-05-01T00:14:13.709Z,0.00
2019-05-01T00:15:13.686Z,0.00
2019-05-01T00:16:13.682Z,0.00
2019-05-01T00:17:13.640Z,0.00
2019-05-01T00:18:13.615Z,0.00
2019-05-01T00:19:13.587Z,0.00
2019-05-01T00:20:13.566Z,0.00
2019-05-01T00:21:13.544Z,0.00
2019-05-01T00:22:13.573Z,0.00
2019-05-01T00:23:13.493Z,0.00
2019-05-01T00:24:13.480Z,0.00
2019-05-01T00:25:13.457Z,0.00
2019-05-01T00:26:13.433Z,0.00
2019-05-01T00:27:13.402Z,0.00
2019-05-01T00:28:13.379Z,0.00
2019-05-01T00:29:13.350Z,0.00
2019-05-01T00:30:13.341Z,0.00
2019-05-01T00:31:13.311Z,0.00
2019-05-01T00:32:13.291Z,0.00
2019-05-01T00:33:13.263Z,0.00
2019-05-01T00:34:13.260Z,0.00
2019-05-01T00:35:13.221Z,0.00
2019-05-01T00:36:13.205Z,0.00
2019-05-01T00:37:13.187Z,0.00
2019-05-01T00:38:13.154Z,0.00
2019-05-01T00:39:13.128Z,0.00
2019-05-01T00:40:13.110Z,0.00
2019-05-01T00:41:13.074Z,0.00
2019-05-01T00:42:13.067Z,0.00
2019-05-01T00:43:13.038Z,0.00
2019-05-01T00:44:13.026Z,0.00
2019-05-01T00:45:12.992Z,0.00
2019-05-01T00:46:12.981Z,0.00
2019-05-01T00:47:12.949Z,0.00
2019-05-01T00:48:12.920Z,0.00
2019-05-01T00:49:12.894Z,0.00
2019-05-01T00:50:12.872Z,0.00
2019-05-01T00:51:12.859Z,0.00
2019-05-01T00:52:12.846Z,0.00
2019-05-01T00:53:12.808Z,0.00
2019-05-01T00:54:12.781Z,0.00
2019-05-01T00:55:12.762Z,0.00
2019-05-01T00:56:12.760Z,0.00
2019-05-01T00:57:12.718Z,0.00
2019-05-01T00:58:12.692Z,0.00
2019-05-01T00:59:12.689Z,0.00
2019-05-01T01:00:12.645Z,0.00
2019-05-01T01:01:12.619Z,0.00
2019-05-01T01:02:12.603Z,0.00
2019-05-01T01:03:12.621Z,0.00
2019-05-01T01:04:12.551Z,0.00
2019-05-01T01:05:12.529Z,0.00
2019-05-01T01:06:12.504Z,0.00
2019-05-01T01:07:12.486Z,0.00
2019-05-01T01:08:12.463Z,0.00
2019-05-01T01:09:12.441Z,0.00
2019-05-01T01:10:12.413Z,0.00
2019-05-01T01:11:12.391Z,0.00
2019-05-01T01:12:12.371Z,0.00
2019-05-01T01:13:12.348Z,0.00
2019-05-01T01:14:12.320Z,0.00
2019-05-01T01:15:12.307Z,0.00
2019-05-01T01:16:12.273Z,0.00
2019-05-01T01:17:12.260Z,0.00
2019-05-01T01:18:12.238Z,0.00
2019-05-01T01:19:12.209Z,0.00
2019-05-01T01:20:12.180Z,0.00
2019-05-01T01:21:12.163Z,0.00
2019-05-01T01:22:12.138Z,0.00
2019-05-01T01:23:12.129Z,0.00
2019-05-01T01:24:12.090Z,0.00
2019-05-01T01:25:12.085Z,0.00
2019-05-01T01:26:12.052Z,0.00
2019-05-01T01:27:12.056Z,0.00
2019-05-01T01:28:12.001Z,0.00
2019-05-01T01:29:11.975Z,0.00
2019-05-01T01:30:11.951Z,0.00
2019-05-01T01:31:11.936Z,0.00
2019-05-01T01:32:11.916Z,0.00
2019-05-01T01:33:11.906Z,0.00
2019-05-01T01:34:11.902Z,0.00
2019-05-01T01:35:11.828Z,0.00
2019-05-01T01:36:11.835Z,0.00
2019-05-01T01:37:11.790Z,0.00
2019-05-01T01:38:11.805Z,0.00
2019-05-01T01:39:11.753Z,0.00
2019-05-01T01:40:11.735Z,0.00
2019-05-01T01:41:11.704Z,0.00
2019-05-01T01:42:11.682Z,0.00
2019-05-01T01:43:11.647Z,0.00
2019-05-01T01:44:11.631Z,0.00
2019-05-01T01:45:11.606Z,0.00
2019-05-01T01:46:11.607Z,0.00
2019-05-01T01:47:11.562Z,0.00
2019-05-01T01:48:11.558Z,0.00
2019-05-01T01:49:11.519Z,0.00
2019-05-01T01:50:11.485Z,0.00
2019-05-01T01:51:11.463Z,0.00
2019-05-01T01:52:11.440Z,0.00
2019-05-01T01:53:11.418Z,0.00
2019-05-01T01:54:11.396Z,0.00
2019-05-01T01:55:11.376Z,0.00
2019-05-01T01:56:11.351Z,0.00
2019-05-01T01:57:11.328Z,0.00
2019-05-01T01:58:11.309Z,0.00
2019-05-01T01:59:11.279Z,0.00
2019-05-01T02:00:11.254Z,0.00
2019-05-01T02:01:11.242Z,0.00
2019-05-01T02:02:11.212Z,0.00
2019-05-01T02:03:11.202Z,0.00
2019-05-01T02:04:11.167Z,0.00
2019-05-01T02:05:11.135Z,0.00
2019-05-01T02:06:11.113Z,0.00
2019-05-01T02:07:11.094Z,0.00
2019-05-01T02:08:11.073Z,0.00
2019-05-01T02:09:11.051Z,0.00
2019-05-01T02:10:11.041Z,0.00
2019-05-01T02:11:10.995Z,0.00
2019-05-01T02:12:10.994Z,0.00
2019-05-01T02:13:10.951Z,0.00
2019-05-01T02:14:10.941Z,0.00
2019-05-01T02:15:10.925Z,0.00
2019-05-01T02:16:10.897Z,0.00
2019-05-01T02:17:10.860Z,0.00
2019-05-01T02:18:10.847Z,0.00
2019-05-01T02:19:10.819Z,0.00
2019-05-01T02:20:10.848Z,0.00
2019-05-01T02:21:10.771Z,0.00
2019-05-01T02:22:10.746Z,0.00
2019-05-01T02:23:10.729Z,0.00
2019-05-01T02:24:10.700Z,0.00
2019-05-01T02:25:10.671Z,0.00
2019-05-01T02:26:10.698Z,0.00
2019-05-01T02:27:10.630Z,0.00
2019-05-01T02:28:10.601Z,0.00
2019-05-01T02:29:10.580Z,0.00
2019-05-01T02:30:10.582Z,0.00
2019-05-01T02:31:27.404Z,0.00
2019-05-01T02:32:10.511Z,0.00
2019-05-01T02:33:10.497Z,0.00
2019-05-01T02:34:10.461Z,0.00
2019-05-01T02:35:10.438Z,0.00
2019-05-01T02:36:10.423Z,0.00
2019-05-01T02:37:10.398Z,0.00
2019-05-01T02:38:10.368Z,0.00
2019-05-01T02:39:10.348Z,0.00
2019-05-01T02:40:10.354Z,0.00
2019-05-01T02:41:10.302Z,0.00
2019-05-01T02:42:10.274Z,0.00
2019-05-01T02:43:10.259Z,0.00
2019-05-01T02:44:10.226Z,0.00
2019-05-01T02:45:10.208Z,0.00
2019-05-01T02:46:10.179Z,0.00
2019-05-01T02:47:10.166Z,0.00
2019-05-01T02:48:10.146Z,0.00
2019-05-01T02:49:10.115Z,0.00
2019-05-01T02:50:10.136Z,0.00
2019-05-01T02:51:10.075Z,0.00
2019-05-01T02:52:10.044Z,0.00
2019-05-01T02:53:10.031Z,0.00
2019-05-01T02:54:09.999Z,0.00
2019-05-01T02:55:09.975Z,0.00
2019-05-01T02:56:09.947Z,0.00
2019-05-01T02:57:09.940Z,0.00
2019-05-01T02:58:09.908Z,0.00
2019-05-01T02:59:09.883Z,0.00
2019-05-01T03:00:09.852Z,0.00
2019-05-01T03:01:09.841Z,0.00
2019-05-01T03:02:09.806Z,0.00
2019-05-01T03:03:09.781Z,0.00
2019-05-01T03:04:09.758Z,0.00
2019-05-01T03:05:09.743Z,0.00
2019-05-01T03:06:09.710Z,0.00
2019-05-01T03:07:09.689Z,0.00
2019-05-01T03:08:09.667Z,0.00
2019-05-01T03:09:09.646Z,0.00
2019-05-01T03:10:10.062Z,0.00
2019-05-01T03:11:09.596Z,0.00
2019-05-01T03:12:09.577Z,0.00
2019-05-01T03:13:09.558Z,0.00
2019-05-01T03:14:09.542Z,0.00
2019-05-01T03:15:09.520Z,0.00
2019-05-01T03:16:09.478Z,0.00
2019-05-01T03:17:09.460Z,0.00
2019-05-01T03:18:09.432Z,0.00
2019-05-01T03:19:09.415Z,0.00
2019-05-01T03:20:09.395Z,0.00
2019-05-01T03:21:09.440Z,0.00
2019-05-01T03:22:09.343Z,0.00
2019-05-01T03:23:09.317Z,0.00
2019-05-01T03:24:09.299Z,0.00
2019-05-01T03:25:09.274Z,0.00
2019-05-01T03:26:09.248Z,0.00
2019-05-01T03:27:09.230Z,0.00
2019-05-01T03:28:09.208Z,0.00
2019-05-01T03:29:09.179Z,0.00
2019-05-01T03:30:09.147Z,0.00
2019-05-01T03:31:09.127Z,0.00
2019-05-01T03:32:19.138Z,0.00
2019-05-01T03:33:09.081Z,0.00
2019-05-01T03:34:09.061Z,0.00
2019-05-01T03:35:09.042Z,0.00
2019-05-01T03:36:09.010Z,0.00
2019-05-01T03:37:08.992Z,0.00
2019-05-01T03:38:08.959Z,0.00
2019-05-01T03:39:08.947Z,0.00
2019-05-01T03:40:12.146Z,0.00
2019-05-01T03:41:08.894Z,0.00
2019-05-01T03:42:08.873Z,0.00
2019-05-01T03:43:08.849Z,0.00
2019-05-01T03:44:08.819Z,0.00
2019-05-01T03:45:08.820Z,0.00
2019-05-01T03:46:08.793Z,0.00
2019-05-01T03:47:08.744Z,0.00
2019-05-01T03:48:08.724Z,0.00
2019-05-01T03:49:08.705Z,0.00
2019-05-01T03:50:08.693Z,0.00
2019-05-01T03:51:08.657Z,0.00
2019-05-01T03:52:08.639Z,0.00
2019-05-01T03:53:08.612Z,0.00
2019-05-01T03:54:08.592Z,0.00
2019-05-01T03:55:08.562Z,5.63
2019-05-01T03:56:08.541Z,5.63
2019-05-01T03:57:08.520Z,5.63
2019-05-01T03:58:08.518Z,5.63
2019-05-01T03:59:08.478Z,5.63
2019-05-01T04:00:08.450Z,5.63
2019-05-01T04:01:08.437Z,5.63
2019-05-01T04:02:08.398Z,11.25
2019-05-01T04:03:08.388Z,11.25
2019-05-01T04:04:08.349Z,11.25
2019-05-01T04:05:08.326Z,11.25
2019-05-01T04:06:08.333Z,11.25
2019-05-01T04:07:08.305Z,16.88
2019-05-01T04:08:08.253Z,16.88
2019-05-01T04:09:08.237Z,16.88
2019-05-01T04:10:08.245Z,22.50
2019-05-01T04:11:08.183Z,22.50
2019-05-01T04:12:08.168Z,22.50
2019-05-01T04:13:08.185Z,22.50
2019-05-01T04:14:08.122Z,28.13
2019-05-01T04:15:08.107Z,28.13
2019-05-01T04:16:08.074Z,28.13
2019-05-01T04:17:08.041Z,33.75
2019-05-01T04:18:08.022Z,33.75
2019-05-01T04:19:08.003Z,33.75
2019-05-01T04:20:07.972Z,39.38
2019-05-01T04:21:07.968Z,39.38
2019-05-01T04:22:07.942Z,39.38
2019-05-01T04:23:07.901Z,45.00
2019-05-01T04:24:07.878Z,45.00
2019-05-01T04:25:07.863Z,45.00
2019-05-01T04:26:07.842Z,50.63
2019-05-01T04:27:07.821Z,50.63
2019-05-01T04:28:07.794Z,50.63
2019-05-01T04:29:07.774Z,56.25
2019-05-01T04:30:07.748Z,56.25
2019-05-01T04:31:07.720Z,61.88
2019-05-01T04:32:07.691Z,61.88
2019-05-01T04:33:07.678Z,61.88
2019-05-01T04:34:07.644Z,67.50
2019-05-01T04:35:07.620Z,67.50
2019-05-01T04:36:07.609Z,67.50
2019-05-01T04:37:07.590Z,73.13
2019-05-01T04:38:07.570Z,73.13
2019-05-01T04:39:07.547Z,78.75
2019-05-01T04:40:07.502Z,78.75
2019-05-01T04:41:07.477Z,78.75
2019-05-01T04:42:07.464Z,84.38
2019-05-01T04:43:07.445Z,84.38
2019-05-01T04:44:07.410Z,84.38
2019-05-01T04:45:07.408Z,90.00
2019-05-01T04:46:07.366Z,90.00
2019-05-01T04:47:07.343Z,95.63
2019-05-01T04:48:07.315Z,95.63
2019-05-01T04:49:07.289Z,95.63
2019-05-01T04:50:07.277Z,101.25
2019-05-01T04:51:07.260Z,101.25
2019-05-01T04:52:07.231Z,101.25
2019-05-01T04:53:07.202Z,106.88
2019-05-01T04:54:07.183Z,106.88
2019-05-01T04:55:07.147Z,112.50
2019-05-01T04:56:07.125Z,112.50
2019-05-01T04:57:07.115Z,112.50
2019-05-01T04:58:07.092Z,118.13
2019-05-01T04:59:07.071Z,118.13
2019-05-01T05:00:07.043Z,118.13
2019-05-01T05:01:07.014Z,123.75
2019-05-01T05:02:06.991Z,123.75
2019-05-01T05:03:06.962Z,129.38
2019-05-01T05:04:06.950Z,129.38
2019-05-01T05:05:06.925Z,129.38
2019-05-01T05:06:06.898Z,135.00
2019-05-01T05:07:06.896Z,135.00
2019-05-01T05:08:06.862Z,135.00
2019-05-01T05:09:06.855Z,140.63
2019-05-01T05:10:06.801Z,140.63
2019-05-01T05:11:06.784Z,140.63
2019-05-01T05:12:06.778Z,140.63
2019-05-01T05:13:06.736Z,146.25
2019-05-01T05:14:06.711Z,146.25
2019-05-01T05:15:06.686Z,146.25
2019-05-01T05:16:06.670Z,151.88
2019-05-01T05:17:06.638Z,151.88
2019-05-01T05:18:06.622Z,151.88
2019-05-01T05:19:06.597Z,151.88
2019-05-01T05:20:06.587Z,157.50
2019-05-01T05:21:06.552Z,157.50
2019-05-01T05:22:06.524Z,157.50
2019-05-01T05:23:06.507Z,157.50
2019-05-01T05:24:06.539Z,157.50
2019-05-01T05:25:06.458Z,163.13
2019-05-01T05:26:06.448Z,163.13
2019-05-01T05:27:06.416Z,163.13
2019-05-01T05:28:06.391Z,163.13
2019-05-01T05:29:06.388Z,163.13
2019-05-01T05:30:06.347Z,168.75
2019-05-01T05:31:06.323Z,168.75
2019-05-01T05:32:06.295Z,168.75
2019-05-01T05:33:17.670Z,168.75
2019-05-01T05:34:06.255Z,168.75
2019-05-01T05:35:06.235Z,168.75
2019-05-01T05:36:06.213Z,174.38
2019-05-01T05:37:06.190Z,174.38
2019-05-01T05:38:06.162Z,174.38
2019-05-01T05:39:06.140Z,180.00
2019-05-01T05:40:06.129Z,180.00
2019-05-01T05:41:06.121Z,185.63
2019-05-01T05:42:06.078Z,191.25
2019-05-01T05:43:06.054Z,191.25
2019-05-01T05:44:06.048Z,191.25
2019-05-01T05:45:06.011Z,196.88
2019-05-01T05:46:05.979Z,191.25
2019-05-01T05:47:05.960Z,196.88
2019-05-01T05:48:05.940Z,196.88
2019-05-01T05:49:05.918Z,196.88
2019-05-01T05:50:05.915Z,196.88
2019-05-01T05:51:05.875Z,196.88
2019-05-01T05:52:05.847Z,202.50
2019-05-01T05:53:05.831Z,208.13
2019-05-01T05:54:05.815Z,213.75
2019-05-01T05:55:05.783Z,208.13
2019-05-01T05:56:05.761Z,208.13
2019-05-01T05:57:05.744Z,208.13
2019-05-01T05:58:05.754Z,213.75
2019-05-01T05:59:05.738Z,213.75
2019-05-01T06:00:05.677Z,213.75
2019-05-01T06:01:05.659Z,219.38
2019-05-01T06:02:05.629Z,236.25
2019-05-01T06:03:05.613Z,241.88
2019-05-01T06:04:05.647Z,241.88
2019-05-01T06:05:05.572Z,247.50
2019-05-01T06:06:05.552Z,236.25
2019-05-01T06:07:05.559Z,225.00
2019-05-01T06:08:05.505Z,225.00
2019-05-01T06:09:08.965Z,225.00
2019-05-01T06:10:05.472Z,225.00
2019-05-01T06:11:05.443Z,236.25
2019-05-01T06:12:08.985Z,230.63
2019-05-01T06:13:05.399Z,230.63
2019-05-01T06:14:05.372Z,230.63
2019-05-01T06:15:06.443Z,230.63
2019-05-01T06:16:05.338Z,230.63
2019-05-01T06:17:05.312Z,230.63
2019-05-01T06:18:05.924Z,230.63
2019-05-01T06:19:05.269Z,236.25
2019-05-01T06:20:05.257Z,236.25
2019-05-01T06:21:05.228Z,236.25
2019-05-01T06:22:10.361Z,236.25
2019-05-01T06:23:05.217Z,236.25
2019-05-01T06:24:06.722Z,241.88
2019-05-01T06:25:05.154Z,241.88
2019-05-01T06:26:05.146Z,241.88
2019-05-01T06:27:08.955Z,241.88
2019-05-01T06:28:05.090Z,241.88
2019-05-01T06:29:05.088Z,241.88
2019-05-01T06:30:06.491Z,241.88
2019-05-01T06:31:05.026Z,247.50
2019-05-01T06:32:05.007Z,247.50
2019-05-01T06:33:09.355Z,247.50
2019-05-01T06:34:04.982Z,247.50
2019-05-01T06:35:04.953Z,253.13
2019-05-01T06:36:08.771Z,253.13
2019-05-01T06:37:04.902Z,253.13
2019-05-01T06:38:04.889Z,258.75
2019-05-01T06:39:06.891Z,258.75
2019-05-01T06:40:04.850Z,258.75
2019-05-01T06:41:04.832Z,258.75
2019-05-01T06:42:04.816Z,258.75
2019-05-01T06:43:04.800Z,258.75
2019-05-01T06:44:07.377Z,258.75
2019-05-01T06:45:04.755Z,270.00
2019-05-01T06:46:04.732Z,258.75
2019-05-01T06:47:05.152Z,264.38
2019-05-01T06:48:04.697Z,270.00
2019-05-01T06:49:06.866Z,270.00
2019-05-01T06:50:05.930Z,270.00
2019-05-01T06:51:04.648Z,270.00
2019-05-01T06:52:04.621Z,270.00
2019-05-01T06:53:06.095Z,264.38
2019-05-01T06:54:04.583Z,275.63
2019-05-01T06:55:04.563Z,275.63
2019-05-01T06:56:04.547Z,281.25
2019-05-01T06:57:04.534Z,281.25
2019-05-01T06:58:04.514Z,275.63
2019-05-01T06:59:04.497Z,275.63
2019-05-01T07:00:08.074Z,275.63
2019-05-01T07:01:04.459Z,275.63
2019-05-01T07:02:04.435Z,275.63
2019-05-01T07:03:05.939Z,281.25
2019-05-01T07:04:04.414Z,281.25
2019-05-01T07:05:04.379Z,281.25
2019-05-01T07:06:14.160Z,281.25
2019-05-01T07:07:06.533Z,286.88
2019-05-01T07:08:04.327Z,286.88
2019-05-01T07:09:06.923Z,286.88
2019-05-01T07:10:04.297Z,292.50
2019-05-01T07:11:04.286Z,286.88
2019-05-01T07:12:04.258Z,292.50
2019-05-01T07:13:06.455Z,292.50
2019-05-01T07:14:04.213Z,292.50
2019-05-01T07:15:04.200Z,292.50
2019-05-01T07:16:04.185Z,292.50
2019-05-01T07:17:04.178Z,298.13
2019-05-01T07:18:04.147Z,298.13
2019-05-01T07:19:06.969Z,303.75
2019-05-01T07:20:04.117Z,303.75
2019-05-01T07:21:04.094Z,303.75
2019-05-01T07:22:06.337Z,309.38
2019-05-01T07:23:04.068Z,315.00
2019-05-01T07:24:04.044Z,320.63
2019-05-01T07:25:05.192Z,320.63
2019-05-01T07:26:04.046Z,320.63
2019-05-01T07:27:03.995Z,320.63
2019-05-01T07:28:03.979Z,320.63
2019-05-01T07:29:06.027Z,320.63
2019-05-01T07:30:03.954Z,320.63
2019-05-01T07:31:05.294Z,320.63
2019-05-01T07:32:06.366Z,320.63
2019-05-01T07:33:03.906Z,320.63
2019-05-01T07:34:15.564Z,326.25
2019-05-01T07:35:04.035Z,326.25
2019-05-01T07:36:07.063Z,326.25
2019-05-01T07:37:03.846Z,326.25
2019-05-01T07:38:03.855Z,337.50
2019-05-01T07:39:03.817Z,326.25
2019-05-01T07:40:03.798Z,337.50
2019-05-01T07:41:05.181Z,331.88
2019-05-01T07:42:03.772Z,331.88
2019-05-01T07:43:03.749Z,337.50
2019-05-01T07:44:03.753Z,337.50
2019-05-01T07:45:07.845Z,337.50
2019-05-01T07:46:03.711Z,337.50
2019-05-01T07:47:03.701Z,343.13
2019-05-01T07:48:05.618Z,343.13
2019-05-01T07:49:03.682Z,348.75
2019-05-01T07:50:03.668Z,348.75
2019-05-01T07:51:06.974Z,348.75
2019-05-01T07:52:03.638Z,354.38
2019-05-01T07:53:03.632Z,354.38
2019-05-01T07:54:06.680Z,354.38
2019-05-01T07:55:03.594Z,354.38
2019-05-01T07:56:03.592Z,354.38
2019-05-01T07:57:04.879Z,360.00
2019-05-01T07:58:03.557Z,360.00
2019-05-01T07:59:03.551Z,360.00
2019-05-01T08:00:07.907Z,360.00
2019-05-01T08:01:03.516Z,365.63
2019-05-01T08:02:03.514Z,360.00
2019-05-01T08:03:07.198Z,360.00
2019-05-01T08:04:03.479Z,360.00
2019-05-01T08:05:05.039Z,365.63
2019-05-01T08:06:03.454Z,371.25
2019-05-01T08:07:03.455Z,371.25
2019-05-01T08:08:07.775Z,371.25
2019-05-01T08:09:03.420Z,371.25
2019-05-01T08:10:03.408Z,371.25
2019-05-01T08:11:05.418Z,365.63
2019-05-01T08:12:03.380Z,365.63
2019-05-01T08:13:03.441Z,371.25
2019-05-01T08:14:07.495Z,371.25
2019-05-01T08:15:03.347Z,371.25
2019-05-01T08:16:07.126Z,376.88
2019-05-01T08:17:03.323Z,371.25
2019-05-01T08:18:03.317Z,371.25
2019-05-01T08:19:04.027Z,371.25
2019-05-01T08:20:03.294Z,376.88
2019-05-01T08:21:03.278Z,376.88
2019-05-01T08:22:03.273Z,376.88
2019-05-01T08:23:03.339Z,376.88
2019-05-01T08:24:03.258Z,376.88
2019-05-01T08:25:03.242Z,376.88
2019-05-01T08:26:03.862Z,376.88
2019-05-01T08:27:03.220Z,376.88
2019-05-01T08:28:03.216Z,382.50
2019-05-01T08:29:06.930Z,382.50
2019-05-01T08:30:03.207Z,382.50
2019-05-01T08:31:03.175Z,382.50
2019-05-01T08:32:04.565Z,382.50
2019-05-01T08:33:03.177Z,382.50
2019-05-01T08:34:03.134Z,388.13
2019-05-01T08:35:03.140Z,388.13
2019-05-01T08:36:06.930Z,388.13
2019-05-01T08:37:03.099Z,388.13
2019-05-01T08:38:03.140Z,388.13
2019-05-01T08:39:04.986Z,388.13
2019-05-01T08:40:03.057Z,388.13
2019-05-01T08:41:03.047Z,393.75
2019-05-01T08:42:07.007Z,393.75
2019-05-01T08:43:03.127Z,393.75
2019-05-01T08:44:03.080Z,393.75
2019-05-01T08:45:05.295Z,393.75
2019-05-01T08:46:02.992Z,399.38
2019-05-01T08:47:02.983Z,399.38
2019-05-01T08:48:02.999Z,399.38
2019-05-01T08:49:06.925Z,399.38
2019-05-01T08:50:02.949Z,405.00
2019-05-01T08:51:02.952Z,405.00
2019-05-01T08:52:04.849Z,405.00
2019-05-01T08:53:02.919Z,405.00
2019-05-01T08:54:02.910Z,410.63
2019-05-01T08:55:04.232Z,410.63
2019-05-01T08:56:02.886Z,410.63
2019-05-01T08:57:02.879Z,410.63
2019-05-01T08:58:02.869Z,410.63
2019-05-01T08:59:02.847Z,421.88
2019-05-01T09:00:02.860Z,416.25
2019-05-01T09:01:02.828Z,421.88
2019-05-01T09:02:09.338Z,421.88
2019-05-01T09:03:08.542Z,427.50
2019-05-01T09:04:12.742Z,421.88
2019-05-01T09:05:02.918Z,421.88
2019-05-01T09:06:02.774Z,427.50
2019-05-01T09:07:02.775Z,427.50
2019-05-01T09:08:02.789Z,427.50
2019-05-01T09:09:07.751Z,433.13
2019-05-01T09:10:02.742Z,427.50
2019-05-01T09:11:02.751Z,433.13
2019-05-01T09:12:06.944Z,433.13
2019-05-01T09:13:02.701Z,433.13
2019-05-01T09:14:02.694Z,438.75
2019-05-01T09:15:07.096Z,444.38
2019-05-01T09:16:02.674Z,444.38
2019-05-01T09:17:02.656Z,450.00
2019-05-01T09:18:02.650Z,455.63
2019-05-01T09:19:02.644Z,450.00
2019-05-01T09:20:02.716Z,455.63
2019-05-01T09:21:02.618Z,450.00
2019-05-01T09:22:02.618Z,450.00
2019-05-01T09:23:02.599Z,455.63
2019-05-01T09:24:02.590Z,455.63
2019-05-01T09:25:02.573Z,466.88
2019-05-01T09:26:06.770Z,466.88
2019-05-01T09:27:02.563Z,466.88
2019-05-01T09:28:04.209Z,478.13
2019-05-01T09:29:02.534Z,478.13
2019-05-01T09:30:04.484Z,478.13
2019-05-01T09:31:03.363Z,483.75
2019-05-01T09:32:05.118Z,483.75
2019-05-01T09:33:02.501Z,483.75
2019-05-01T09:34:02.507Z,489.38
2019-05-01T09:35:14.577Z,489.38
2019-05-01T09:36:02.464Z,489.38
2019-05-01T09:37:02.454Z,489.38
2019-05-01T09:38:02.445Z,489.38
2019-05-01T09:39:02.467Z,489.38
2019-05-01T09:40:04.197Z,495.00
2019-05-01T09:41:02.420Z,500.63
2019-05-01T09:42:02.404Z,500.63
2019-05-01T09:43:02.394Z,500.63
2019-05-01T09:44:05.851Z,506.25
2019-05-01T09:45:02.381Z,506.25
2019-05-01T09:46:02.380Z,511.88
2019-05-01T09:47:02.357Z,511.88
2019-05-01T09:48:02.350Z,511.88
2019-05-01T09:49:02.364Z,517.50
2019-05-01T09:50:02.327Z,517.50
2019-05-01T09:51:05.438Z,523.13
2019-05-01T09:52:02.312Z,523.13
2019-05-01T09:53:02.302Z,523.13
2019-05-01T09:54:05.735Z,523.13
2019-05-01T09:55:02.304Z,528.75
2019-05-01T09:56:03.287Z,528.75
2019-05-01T09:57:02.270Z,528.75
2019-05-01T09:58:02.880Z,540.00
2019-05-01T09:59:02.251Z,540.00
2019-05-01T10:00:02.237Z,540.00
2019-05-01T10:01:02.231Z,545.63
2019-05-01T10:02:03.068Z,551.25
2019-05-01T10:03:02.233Z,556.88
2019-05-01T10:04:02.200Z,556.88
2019-05-01T10:05:06.705Z,573.75
2019-05-01T10:06:02.189Z,585.00
2019-05-01T10:07:02.368Z,596.25
2019-05-01T10:08:04.391Z,607.50
2019-05-01T10:09:02.174Z,624.38
2019-05-01T10:10:02.150Z,641.25
2019-05-01T10:11:05.069Z,652.50
2019-05-01T10:12:02.148Z,658.13
2019-05-01T10:13:02.145Z,663.75
2019-05-01T10:14:04.142Z,675.00
2019-05-01T10:15:02.143Z,691.88
2019-05-01T10:16:02.110Z,714.38
2019-05-01T10:17:02.110Z,742.50
2019-05-01T10:18:02.100Z,770.63
2019-05-01T10:19:02.086Z,815.63
2019-05-01T10:20:02.079Z,871.88
2019-05-01T10:21:02.069Z,939.38
2019-05-01T10:22:02.661Z,1018.13
2019-05-01T10:23:02.063Z,1113.75
2019-05-01T10:24:02.079Z,1226.25
2019-05-01T10:25:02.071Z,1361.25
2019-05-01T10:26:02.057Z,1485.00
2019-05-01T10:27:02.054Z,1608.75
2019-05-01T10:28:02.021Z,1738.13
2019-05-01T10:29:02.019Z,1861.88
2019-05-01T10:30:03.098Z,1963.13
2019-05-01T10:31:01.999Z,2047.50
2019-05-01T10:32:01.996Z,2143.13
2019-05-01T10:33:01.987Z,2205.00
2019-05-01T10:34:02.833Z,2261.25
2019-05-01T10:35:01.977Z,2317.50
2019-05-01T10:36:01.974Z,2351.25
2019-05-01T10:37:01.965Z,2368.13
2019-05-01T10:38:04.676Z,2385.00
2019-05-01T10:39:01.960Z,2396.25
2019-05-01T10:40:01.958Z,2407.50
2019-05-01T10:41:04.177Z,2385.00
2019-05-01T10:42:02.000Z,2362.50
2019-05-01T10:43:01.932Z,2340.00
2019-05-01T10:44:01.952Z,2328.75
2019-05-01T10:45:01.929Z,2306.25
2019-05-01T10:46:01.923Z,2289.38
2019-05-01T10:47:02.257Z,2272.50
2019-05-01T10:48:01.943Z,2255.63
2019-05-01T10:49:01.904Z,2233.13
2019-05-01T10:50:01.899Z,2210.63
2019-05-01T10:51:01.897Z,2188.13
2019-05-01T10:52:13.640Z,2171.25
2019-05-01T10:53:01.900Z,2143.13
2019-05-01T10:54:01.910Z,2126.25
2019-05-01T10:55:01.882Z,2115.00
2019-05-01T10:56:01.866Z,2098.13
2019-05-01T10:57:03.414Z,2081.25
2019-05-01T10:58:03.398Z,2058.75
2019-05-01T10:59:01.879Z,2053.13
2019-05-01T11:00:01.861Z,2053.13
2019-05-01T11:01:01.860Z,2030.63
2019-05-01T11:02:01.873Z,2008.13
2019-05-01T11:03:01.837Z,1968.75
2019-05-01T11:04:01.876Z,1951.88
2019-05-01T11:05:01.866Z,1923.75
2019-05-01T11:06:01.829Z,1906.88
2019-05-01T11:07:01.828Z,1890.00
2019-05-01T11:08:01.843Z,1895.63
2019-05-01T11:09:01.819Z,1906.88
2019-05-01T11:10:01.820Z,1912.50
2019-05-01T11:11:01.863Z,1923.75
2019-05-01T11:12:01.807Z,1929.38
2019-05-01T11:13:01.802Z,1940.63
2019-05-01T11:14:01.799Z,1974.38
2019-05-01T11:15:01.823Z,2030.63
2019-05-01T11:16:01.802Z,2075.63
2019-05-01T11:17:01.800Z,2610.00
2019-05-01T11:18:01.796Z,3701.25
2019-05-01T11:19:01.793Z,3785.63
2019-05-01T11:20:01.792Z,3915.00
2019-05-01T11:21:01.789Z,3954.38
2019-05-01T11:22:01.793Z,3999.38
2019-05-01T11:23:01.789Z,4325.63
2019-05-01T11:24:01.783Z,4511.25
2019-05-01T11:25:01.809Z,4696.88
2019-05-01T11:26:01.777Z,4477.50
2019-05-01T11:27:01.780Z,4196.25
2019-05-01T11:28:01.794Z,4078.13
2019-05-01T11:29:01.780Z,4083.75
2019-05-01T11:30:01.780Z,4128.75
2019-05-01T11:31:01.778Z,4106.25
2019-05-01T11:32:01.773Z,4151.25
2019-05-01T11:33:01.767Z,4173.75
2019-05-01T11:34:01.774Z,3971.25
2019-05-01T11:35:01.777Z,4066.88
2019-05-01T11:36:09.379Z,4117.50
2019-05-01T11:37:01.771Z,4151.25
2019-05-01T11:38:01.768Z,4308.75
2019-05-01T11:39:01.773Z,4123.13
2019-05-01T11:40:01.781Z,4156.88
2019-05-01T11:41:01.767Z,4201.88
2019-05-01T11:42:01.757Z,4207.50
2019-05-01T11:43:02.761Z,4173.75
2019-05-01T11:44:01.761Z,4072.50
2019-05-01T11:45:01.761Z,4246.88
2019-05-01T11:46:01.761Z,4381.88
2019-05-01T11:47:01.834Z,4252.50
2019-05-01T11:48:01.764Z,4353.75
2019-05-01T11:49:01.787Z,4522.50
2019-05-01T11:50:01.783Z,4668.75
2019-05-01T11:51:01.765Z,4601.25
2019-05-01T11:52:01.767Z,4584.38
2019-05-01T11:53:01.761Z,4747.50
2019-05-01T11:54:02.297Z,4747.50
2019-05-01T11:55:01.785Z,4702.50
2019-05-01T11:56:01.767Z,4685.63
2019-05-01T11:57:01.767Z,4848.75
2019-05-01T11:58:01.777Z,4876.88
2019-05-01T11:59:01.767Z,4612.50
2019-05-01T12:00:01.770Z,4668.75
2019-05-01T12:01:01.858Z,4606.88
2019-05-01T12:02:02.534Z,4618.13
2019-05-01T12:03:01.776Z,3493.13
2019-05-01T12:04:01.777Z,1951.88
2019-05-01T12:05:01.771Z,1198.13
2019-05-01T12:06:01.790Z,4556.25
2019-05-01T12:07:01.793Z,4488.75
2019-05-01T12:08:01.825Z,3262.50
2019-05-01T12:09:01.777Z,2823.75
2019-05-01T12:10:01.783Z,2435.63
2019-05-01T12:11:01.785Z,1310.63
2019-05-01T12:12:01.815Z,3616.88
2019-05-01T12:13:01.823Z,4539.38
2019-05-01T12:14:01.773Z,4651.88
2019-05-01T12:15:01.793Z,4702.50
2019-05-01T12:16:01.778Z,4640.63
2019-05-01T12:17:01.803Z,4471.88
2019-05-01T12:18:01.805Z,4162.50
2019-05-01T12:19:01.776Z,4078.13
2019-05-01T12:20:01.775Z,4117.50
2019-05-01T12:21:01.778Z,4235.63
2019-05-01T12:22:01.783Z,4533.75
2019-05-01T12:23:01.771Z,4488.75
2019-05-01T12:24:01.766Z,4539.38
2019-05-01T12:25:01.793Z,4505.63
2019-05-01T12:26:01.764Z,4483.13
2019-05-01T12:27:01.787Z,4505.63
2019-05-01T12:28:01.770Z,4590.00
2019-05-01T12:29:01.771Z,4702.50
2019-05-01T12:30:01.773Z,4516.88
2019-05-01T12:31:01.773Z,4263.75
2019-05-01T12:32:01.777Z,4381.88
2019-05-01T12:33:01.770Z,4398.75
2019-05-01T12:34:01.768Z,3898.13
2019-05-01T12:35:01.765Z,3813.75
2019-05-01T12:36:01.764Z,4207.50
2019-05-01T12:37:01.771Z,4325.63
2019-05-01T12:38:01.767Z,4179.38
2019-05-01T12:39:01.783Z,4297.50
2019-05-01T12:40:01.786Z,4426.88